Time;durP1;ratioP1;P1;durP2;ratioP2;P2;SDS_P1;SDS_P2;PMS_P1;PMS_P2;Temp;Humidity;BMP_temperature;BMP_pressure;BME280_temperature;BME280_humidity;BME280_pressure;Samples;Min_cycle;Max_cycle;Signal;HPM_P1;HPM_P2
2022/10/17 00:00:15;;;;;;;3.15;1.75;;;;;;;16.96;61.09;100011.59;5112222;28;20572;-60
2022/10/17 00:02:42;;;;;;;1.85;1.60;;;;;;;16.94;61.24;100017.03;5112314;28;20518;-60
2022/10/17 00:05:10;;;;;;;3.53;1.55;;;;;;;16.94;61.31;100017.03;5112453;28;20104;-61
2022/10/17 00:07:37;;;;;;;1.40;1.30;;;;;;;16.93;61.20;100012.69;5112255;28;20453;-62
2022/10/17 00:10:06;;;;;;;3.08;1.17;;;;;;;16.92;61.58;100024.28;5110712;28;20043;-61
2022/10/17 00:12:33;;;;;;;1.98;1.33;;;;;;;16.91;61.60;100014.63;5112027;28;20092;-61
2022/10/17 00:15:03;;;;;;;2.65;1.45;;;;;;;16.92;61.62;100026.94;5111425;28;20052;-60
2022/10/17 00:17:30;;;;;;;5.70;1.88;;;;;;;16.92;61.76;100025.13;5112099;28;20059;-61
2022/10/17 00:20:00;;;;;;;1.50;1.30;;;;;;;16.92;62.39;100024.28;5110907;28;20048;-60
2022/10/17 00:22:27;;;;;;;5.53;1.75;;;;;;;16.95;61.93;100024.03;5110757;28;20090;-60
2022/10/17 00:24:53;;;;;;;2.67;1.60;;;;;;;16.96;62.08;100017.75;5110930;28;20139;-61
2022/10/17 00:27:20;;;;;;;4.05;1.30;;;;;;;16.97;62.32;100022.09;5112254;28;20051;-62
2022/10/17 00:29:51;;;;;;;6.97;1.60;;;;;;;16.97;63.16;100011.47;5111997;28;20105;-61
2022/10/17 00:32:18;;;;;;;4.18;1.10;;;;;;;17.00;62.45;100005.91;5110683;28;20480;-62
2022/10/17 00:34:45;;;;;;;3.20;1.50;;;;;;;17.02;62.76;100009.31;5110676;28;20043;-62
2022/10/17 00:37:12;;;;;;;1.75;1.60;;;;;;;17.04;62.71;99999.41;5111848;28;20056;-60
2022/10/17 00:39:38;;;;;;;2.05;1.48;;;;;;;17.06;62.69;100010.78;5111350;28;20453;-61
2022/10/17 00:42:05;;;;;;;1.40;1.30;;;;;;;17.09;62.92;100000.84;5111714;28;20392;-60
2022/10/17 00:44:31;;;;;;;2.10;1.25;;;;;;;17.12;62.77;100005.94;5111655;28;20092;-63
2022/10/17 00:47:02;;;;;;;1.85;1.38;;;;;;;17.13;63.30;100007.59;5110787;28;20102;-61
2022/10/17 00:49:33;;;;;;;1.58;1.48;;;;;;;17.15;63.43;100013.63;5110061;28;20121;-61
2022/10/17 00:52:04;;;;;;;1.80;1.20;;;;;;;17.18;63.28;100027.56;5110547;28;20077;-60
2022/10/17 00:54:34;;;;;;;2.10;1.15;;;;;;;17.20;63.11;100022.13;5110370;28;20496;-62
2022/10/17 00:57:01;;;;;;;2.08;1.30;;;;;;;17.22;62.54;100022.81;5111553;28;20047;-60
2022/10/17 00:59:31;;;;;;;1.15;1.05;;;;;;;17.25;63.21;100024.38;5111508;28;20047;-60
2022/10/17 01:02:03;;;;;;;4.80;1.30;;;;;;;17.24;63.44;100020.03;5111637;28;20048;-60
2022/10/17 01:04:30;;;;;;;1.42;1.13;;;;;;;17.28;62.24;100021.50;5111372;28;20069;-63
2022/10/17 01:06:57;;;;;;;3.00;1.38;;;;;;;17.29;62.95;100008.06;5110306;28;20051;-60
2022/10/17 01:09:26;;;;;;;1.67;1.08;;;;;;;17.30;63.17;100009.75;5111549;28;20100;-60
2022/10/17 01:12:05;;;;;;;1.90;1.30;;;;;;;17.29;63.74;99994.75;5111737;28;20086;-62
2022/10/17 01:14:51;;;;;;;2.17;1.30;;;;;;;17.30;63.70;99996.44;5111640;28;20102;-61
2022/10/17 01:17:23;;;;;;;2.95;1.67;;;;;;;17.34;63.72;99997.03;5110286;28;20536;-61
2022/10/17 01:20:11;;;;;;;3.20;1.48;;;;;;;17.36;63.09;99986.25;5111209;28;20086;-61
2022/10/17 01:23:05;;;;;;;1.30;1.20;;;;;;;17.35;63.14;99981.91;5111422;28;20090;-60
2022/10/17 01:25:56;;;;;;;5.68;1.55;;;;;;;17.35;64.07;99976.59;5111337;28;20051;-59
2022/10/17 01:28:47;;;;;;;3.38;1.50;;;;;;;17.37;64.05;99977.31;5111669;28;20208;-63
2022/10/17 01:31:18;;;;;;;1.73;1.55;;;;;;;17.39;63.00;99978.03;5111236;28;20087;-62
2022/10/17 01:34:26;;;;;;;4.40;1.58;;;;;;;17.36;63.93;99979.13;5111308;28;20102;-63
2022/10/17 01:37:03;;;;;;;5.75;1.67;;;;;;;17.39;64.44;99972.72;5097750;28;20532;-62
2022/10/17 01:39:38;;;;;;;2.90;2.00;;;;;;;17.38;64.48;99974.53;5114990;28;20100;-61
2022/10/17 01:42:23;;;;;;;2.90;2.00;;;;;;;17.39;64.00;99970.06;5114062;28;20047;-60
2022/10/17 01:45:24;;;;;;;2.40;2.00;;;;;;;17.39;64.47;99962.94;5114246;28;20047;-61
2022/10/17 01:47:53;;;;;;;3.17;2.03;;;;;;;17.44;63.67;99963.38;5114056;28;20048;-60
2022/10/17 01:50:27;;;;;;;2.67;1.98;;;;;;;17.43;64.36;99960.84;5113421;28;20138;-62
2022/10/17 01:53:18;;;;;;;3.30;2.00;;;;;;;17.41;64.26;99960.13;5114076;28;20101;-62
2022/10/17 01:55:48;;;;;;;5.75;2.38;;;;;;;17.47;63.69;99961.44;5113879;28;20101;-60
2022/10/17 01:58:22;;;;;;;5.85;2.50;;;;;;;17.48;63.48;99953.31;5114906;28;20605;-60
2022/10/17 02:00:50;;;;;;;2.65;1.98;;;;;;;17.49;63.83;99955.00;5114759;28;20055;-61
2022/10/17 02:03:19;;;;;;;4.38;2.42;;;;;;;17.49;64.15;99952.34;5113770;28;20052;-61
2022/10/17 02:05:47;;;;;;;2.50;2.10;;;;;;;17.51;63.91;99949.56;5113377;28;20185;-62
2022/10/17 02:08:24;;;;;;;4.45;2.38;;;;;;;17.49;65.24;99947.03;5114422;28;20083;-60
2022/10/17 02:11:08;;;;;;;3.05;2.05;;;;;;;17.50;65.39;99948.72;5113352;28;20491;-62
2022/10/17 02:13:59;;;;;;;4.57;2.40;;;;;;;17.53;64.74;99951.13;5114624;28;20462;-61
2022/10/17 02:16:49;;;;;;;3.13;2.40;;;;;;;17.54;64.80;99950.13;5114719;28;20070;-61
2022/10/17 02:19:21;;;;;;;3.30;2.70;;;;;;;17.57;64.90;99954.38;5093442;27;20116;-63
2022/10/17 02:22:19;;;;;;;3.83;2.88;;;;;;;17.58;64.91;99953.41;5114277;28;20055;-62
2022/10/17 02:24:51;;;;;;;3.17;2.10;;;;;;;17.60;64.05;99947.97;5113220;28;20121;-63
2022/10/17 02:27:38;;;;;;;4.75;2.65;;;;;;;17.57;64.61;99944.56;5114098;27;20500;-63
2022/10/17 02:30:22;;;;;;;3.67;2.45;;;;;;;17.59;64.88;99941.78;5112801;28;20090;-61
2022/10/17 02:32:54;;;;;;;2.95;2.63;;;;;;;17.62;64.92;99941.53;5114462;28;20100;-60
2022/10/17 02:35:24;;;;;;;5.28;2.45;;;;;;;17.64;64.49;99944.06;5114325;28;20048;-61
2022/10/17 02:37:52;;;;;;;4.32;3.03;;;;;;;17.65;64.35;99938.59;5114093;28;20079;-61
2022/10/17 02:40:21;;;;;;;4.43;2.80;;;;;;;17.65;64.96;99930.59;5112677;28;20051;-61
2022/10/17 02:42:50;;;;;;;3.00;2.70;;;;;;;17.67;64.56;99930.47;5112665;28;20071;-61
2022/10/17 02:45:18;;;;;;;6.82;2.78;;;;;;;17.68;64.53;99929.53;5113897;28;20040;-61
2022/10/17 02:47:58;;;;;;;5.90;2.90;;;;;;;17.67;65.09;99933.13;5112865;28;20070;-63
2022/10/17 02:51:00;;;;;;;6.53;2.97;;;;;;;17.66;64.49;99932.31;5112316;28;20100;-61
2022/10/17 02:53:54;;;;;;;2.75;2.42;;;;;;;17.68;65.28;99932.19;5077581;28;20089;-61
2022/10/17 02:56:23;;;;;;;3.58;3.08;;;;;;;17.73;64.16;99929.97;5112816;28;20044;-63
2022/10/17 02:58:56;;;;;;;3.75;3.00;;;;;;;17.72;65.01;99936.28;5112307;28;20075;-61
2022/10/17 03:01:23;;;;;;;3.90;2.95;;;;;;;17.74;64.39;99928.13;5112515;28;20073;-61
2022/10/17 03:03:50;;;;;;;2.80;2.60;;;;;;;17.73;64.24;99934.44;5113657;28;20373;-60
2022/10/17 03:06:17;;;;;;;4.07;2.75;;;;;;;17.74;64.40;99938.78;5113727;28;20108;-63
2022/10/17 03:08:43;;;;;;;8.05;2.75;;;;;;;17.74;64.57;99938.78;5112136;28;20120;-60
2022/10/17 03:11:10;;;;;;;4.45;2.70;;;;;;;17.74;64.24;99933.47;5113556;28;20450;-60
2022/10/17 03:13:36;;;;;;;4.95;2.75;;;;;;;17.74;64.52;99944.09;5113598;28;20060;-62
2022/10/17 03:16:05;;;;;;;6.68;2.67;;;;;;;17.73;64.42;99943.28;5113382;28;20509;-62
2022/10/17 03:18:32;;;;;;;6.90;3.10;;;;;;;17.74;64.73;99941.44;5113075;28;20524;-61
2022/10/17 03:20:58;;;;;;;4.07;2.83;;;;;;;17.74;64.58;99944.97;5113741;28;20043;-60
2022/10/17 03:23:25;;;;;;;5.80;3.15;;;;;;;17.73;64.67;99943.28;5113232;28;20096;-64
2022/10/17 03:25:51;;;;;;;4.05;2.78;;;;;;;17.75;64.80;99940.50;5113352;28;20089;-61
2022/10/17 03:28:18;;;;;;;3.78;3.25;;;;;;;17.75;65.23;99941.31;5112804;28;20086;-60
2022/10/17 03:30:45;;;;;;;5.18;2.95;;;;;;;17.76;65.06;99934.19;5113527;28;20109;-60
2022/10/17 03:33:11;;;;;;;3.72;2.72;;;;;;;17.77;65.22;99934.06;5113051;28;20154;-63
2022/10/17 03:35:41;;;;;;;5.43;3.05;;;;;;;17.79;65.04;99932.09;5113143;27;20138;-60
2022/10/17 03:38:08;;;;;;;3.28;2.67;;;;;;;17.81;64.78;99930.16;5112790;28;20047;-60
2022/10/17 03:40:34;;;;;;;4.93;2.90;;;;;;;17.82;64.94;99925.66;5112749;28;20052;-62
2022/10/17 03:43:01;;;;;;;5.18;2.95;;;;;;;17.82;64.87;99934.50;5112862;28;20138;-61
2022/10/17 03:45:28;;;;;;;5.35;2.72;;;;;;;17.83;64.75;99932.72;5112602;28;20562;-63
2022/10/17 03:47:54;;;;;;;5.68;3.00;;;;;;;17.86;64.94;99934.25;5112583;28;20090;-60
2022/10/17 03:50:21;;;;;;;4.57;2.58;;;;;;;17.86;64.97;99931.59;5112484;28;20055;-61
2022/10/17 03:52:48;;;;;;;4.07;2.75;;;;;;;17.87;65.14;99946.59;5112633;28;20083;-61
2022/10/17 03:55:15;;;;;;;5.32;3.10;;;;;;;17.88;65.24;99948.28;5112494;28;20117;-61
2022/10/17 03:57:42;;;;;;;5.60;3.00;;;;;;;17.89;65.25;99947.28;5111284;28;20086;-62
2022/10/17 04:00:11;;;;;;;2.85;2.63;;;;;;;17.90;65.63;99949.00;5112102;28;20079;-62
2022/10/17 04:02:38;;;;;;;3.72;2.95;;;;;;;17.92;65.35;99941.72;5112698;28;20108;-64
2022/10/17 04:05:05;;;;;;;4.32;3.08;;;;;;;17.93;65.07;99949.56;5112379;28;20047;-61
2022/10/17 04:07:31;;;;;;;3.60;2.92;;;;;;;17.95;64.96;99942.28;5112427;28;20043;-60
2022/10/17 04:09:58;;;;;;;5.05;3.10;;;;;;;17.94;65.11;99947.78;5111954;28;20058;-62
2022/10/17 04:12:25;;;;;;;4.50;2.97;;;;;;;17.96;65.47;99953.78;5112512;28;20128;-63
2022/10/17 04:14:52;;;;;;;5.45;2.88;;;;;;;17.96;65.27;99956.47;5112349;28;20044;-61
2022/10/17 04:17:18;;;;;;;7.35;3.30;;;;;;;17.97;65.40;99955.47;5112247;28;20102;-64
2022/10/17 04:19:45;;;;;;;4.07;2.92;;;;;;;17.98;65.53;99957.16;5111796;28;20158;-61
2022/10/17 04:22:12;;;;;;;4.68;3.63;;;;;;;17.99;65.36;99958.88;5112219;28;20056;-61
2022/10/17 04:24:38;;;;;;;4.85;3.50;;;;;;;18.00;65.49;99965.88;5111844;28;20067;-65
2022/10/17 04:27:05;;;;;;;6.00;3.13;;;;;;;18.01;65.51;99961.41;5111982;28;20101;-61
2022/10/17 04:29:32;;;;;;;3.00;2.70;;;;;;;18.02;65.50;99960.44;5112284;28;20052;-62
2022/10/17 04:31:59;;;;;;;4.55;3.03;;;;;;;18.03;65.26;99962.97;5112004;28;20051;-64
2022/10/17 04:34:25;;;;;;;4.25;2.75;;;;;;;18.05;65.26;99963.66;5111962;28;20393;-61
2022/10/17 04:36:52;;;;;;;4.20;3.05;;;;;;;18.05;65.49;99954.84;5110603;28;20442;-61
2022/10/17 04:39:18;;;;;;;4.47;2.97;;;;;;;18.06;65.37;99962.69;5111691;28;20386;-60
2022/10/17 04:41:45;;;;;;;7.10;3.28;;;;;;;18.07;65.51;99952.88;5111928;28;20047;-61
2022/10/17 04:44:12;;;;;;;3.90;2.90;;;;;;;18.08;65.63;99952.78;5111753;28;20088;-61
2022/10/17 04:46:38;;;;;;;7.70;3.55;;;;;;;18.10;65.66;99956.16;5111558;28;20091;-60
2022/10/17 04:49:05;;;;;;;3.78;3.03;;;;;;;18.12;65.53;99955.19;5111429;28;20557;-62
2022/10/17 04:51:31;;;;;;;3.88;3.03;;;;;;;18.12;65.49;99957.84;5110168;28;20079;-61
2022/10/17 04:53:58;;;;;;;6.10;3.28;;;;;;;18.12;65.74;99956.00;5111928;28;20048;-61
2022/10/17 04:56:25;;;;;;;9.40;3.20;;;;;;;18.14;65.55;99955.88;5110370;28;20094;-63
2022/10/17 04:58:51;;;;;;;4.65;3.13;;;;;;;18.15;65.70;99960.22;5111843;28;20389;-63
2022/10/17 05:01:22;;;;;;;5.65;3.63;;;;;;;18.14;66.15;99961.22;5111403;28;20044;-61
2022/10/17 05:03:49;;;;;;;5.53;3.42;;;;;;;18.17;66.02;99955.63;5111682;28;20047;-60
2022/10/17 05:06:18;;;;;;;4.30;3.30;;;;;;;18.17;65.64;99961.78;5111326;28;20101;-64
2022/10/17 05:08:45;;;;;;;6.45;3.10;;;;;;;18.20;65.95;99963.34;5111490;28;20552;-61
2022/10/17 05:11:21;;;;;;;5.85;3.25;;;;;;;18.19;66.23;99959.84;5113581;28;20089;-60
2022/10/17 05:13:59;;;;;;;5.00;3.15;;;;;;;18.24;65.78;99956.78;5115837;28;20047;-61
2022/10/17 05:16:26;;;;;;;3.70;3.22;;;;;;;18.25;65.62;99945.16;5115681;28;20115;-61
2022/10/17 05:18:55;;;;;;;4.65;3.13;;;;;;;18.27;65.44;99951.19;5114106;28;20066;-61
2022/10/17 05:21:24;;;;;;;6.10;3.33;;;;;;;18.28;65.57;99950.19;5114236;28;20052;-64
2022/10/17 05:23:51;;;;;;;6.03;3.17;;;;;;;18.30;65.62;99947.41;5114081;28;20050;-61
2022/10/17 05:26:18;;;;;;;4.65;3.17;;;;;;;18.31;65.56;99941.94;5115522;28;20039;-61
2022/10/17 05:28:45;;;;;;;5.78;3.17;;;;;;;18.33;65.55;99948.00;5115309;28;20131;-60
2022/10/17 05:31:12;;;;;;;6.10;2.92;;;;;;;18.34;65.20;99944.34;5115454;28;20058;-60
2022/10/17 05:33:39;;;;;;;4.45;3.05;;;;;;;18.34;65.30;99944.34;5114310;28;20044;-60
2022/10/17 05:36:06;;;;;;;7.38;3.53;;;;;;;18.33;65.70;99950.66;5115627;28;20051;-61
2022/10/17 05:38:33;;;;;;;5.78;2.90;;;;;;;18.35;65.90;99947.84;5113980;28;20051;-61
2022/10/17 05:41:03;;;;;;;5.53;3.13;;;;;;;18.35;65.96;99959.38;5115261;28;20135;-64
2022/10/17 05:43:30;;;;;;;4.60;3.08;;;;;;;18.38;65.47;99960.09;5113685;28;20087;-61
2022/10/17 05:45:57;;;;;;;4.90;3.60;;;;;;;18.38;65.58;99952.09;5114947;28;20093;-62
2022/10/17 05:48:24;;;;;;;7.18;3.33;;;;;;;18.38;65.53;99952.91;5115017;27;20682;-63
2022/10/17 05:50:58;;;;;;;8.07;3.35;;;;;;;18.39;66.29;99967.09;5115363;28;20101;-63
2022/10/17 05:53:24;;;;;;;12.50;4.15;;;;;;;18.41;65.55;99973.13;5115082;28;20048;-62
2022/10/17 05:55:59;;;;;;;6.95;3.30;;;;;;;18.39;66.42;99970.59;5114886;28;20393;-62
2022/10/17 05:58:26;;;;;;;11.18;3.42;;;;;;;18.44;65.75;99981.72;5114318;28;20048;-61
2022/10/17 06:01:13;;;;;;;6.65;3.15;;;;;;;18.46;65.65;99977.09;5113783;28;20155;-61
2022/10/17 06:03:40;;;;;;;4.93;3.53;;;;;;;18.46;66.06;99981.56;5114877;28;20142;-62
2022/10/17 06:06:09;;;;;;;5.07;3.40;;;;;;;18.45;65.93;99983.41;5114752;28;20134;-62
2022/10/17 06:08:36;;;;;;;5.60;2.97;;;;;;;18.47;66.07;99977.94;5113230;28;20048;-62
2022/10/17 06:11:03;;;;;;;4.68;3.20;;;;;;;18.48;65.74;99992.94;5114420;28;20622;-60
2022/10/17 06:13:35;;;;;;;4.32;3.30;;;;;;;18.49;65.71;99986.63;5114764;28;20052;-62
2022/10/17 06:16:02;;;;;;;5.38;3.20;;;;;;;18.50;65.69;99988.31;5114930;28;20464;-61
2022/10/17 06:18:28;;;;;;;5.93;3.65;;;;;;;18.49;65.93;99989.28;5114291;28;20055;-61
2022/10/17 06:21:04;;;;;;;7.10;3.22;;;;;;;18.47;66.24;100007.25;5114058;28;20052;-64
2022/10/17 06:23:31;;;;;;;5.63;3.47;;;;;;;18.49;65.93;99999.97;5112940;28;20094;-63
2022/10/17 06:25:59;;;;;;;7.82;3.00;;;;;;;18.51;66.24;100011.34;5112997;28;20051;-61
2022/10/17 06:28:26;;;;;;;3.17;2.88;;;;;;;18.52;66.00;100005.03;5113716;28;20101;-63
2022/10/17 06:30:53;;;;;;;6.28;3.28;;;;;;;18.54;66.25;100016.38;5112789;28;20571;-63
2022/10/17 06:33:22;;;;;;;9.60;4.05;;;;;;;18.55;65.76;100007.44;5114461;28;20520;-62
2022/10/17 06:35:55;;;;;;;6.68;3.28;;;;;;;18.56;66.53;100014.44;5112889;28;20119;-61
2022/10/17 06:38:22;;;;;;;6.72;3.47;;;;;;;18.61;65.95;100011.38;5113044;28;20090;-63
2022/10/17 06:40:48;;;;;;;5.10;3.13;;;;;;;18.64;65.88;100015.63;5114171;28;20094;-60
2022/10/17 06:43:15;;;;;;;4.82;3.20;;;;;;;18.65;66.26;100011.97;5114011;27;20735;-61
2022/10/17 06:45:44;;;;;;;5.35;3.20;;;;;;;18.67;66.10;100013.50;5113887;28;20106;-62
2022/10/17 06:48:11;;;;;;;7.22;3.63;;;;;;;18.70;66.13;100036.41;5113775;28;20144;-62
2022/10/17 06:50:37;;;;;;;5.50;3.30;;;;;;;18.72;65.91;100042.44;5113647;28;20086;-61
2022/10/17 06:53:04;;;;;;;5.03;3.15;;;;;;;18.73;66.11;100046.81;5113882;28;20051;-61
2022/10/17 06:55:31;;;;;;;3.95;3.20;;;;;;;18.76;65.97;100049.19;5113654;28;20496;-61
2022/10/17 06:57:58;;;;;;;4.13;2.83;;;;;;;18.78;65.97;100049.91;5112662;28;20051;-63
2022/10/17 07:00:25;;;;;;;7.05;3.50;;;;;;;18.80;65.89;100052.44;5113501;28;20085;-61
2022/10/17 07:02:52;;;;;;;5.88;3.47;;;;;;;18.83;65.72;100060.16;5113738;28;20481;-63
2022/10/17 07:05:18;;;;;;;6.57;2.85;;;;;;;18.84;66.00;100059.22;5114094;28;20085;-62
2022/10/17 07:07:45;;;;;;;4.28;2.95;;;;;;;18.86;65.88;100067.91;5113842;28;20052;-60
2022/10/17 07:10:17;;;;;;;4.25;2.83;;;;;;;18.87;65.55;100067.78;5113213;28;20476;-61
2022/10/17 07:12:44;;;;;;;6.88;3.22;;;;;;;18.89;65.94;100067.63;5113516;28;20091;-62
2022/10/17 07:15:11;;;;;;;3.35;3.00;;;;;;;18.92;65.68;100069.19;5113553;28;20127;-62
2022/10/17 07:17:38;;;;;;;3.92;3.05;;;;;;;18.94;65.64;100069.88;5113463;28;20094;-63
2022/10/17 07:20:05;;;;;;;6.18;3.83;;;;;;;18.96;65.70;100067.94;5113363;28;20132;-62
2022/10/17 07:22:32;;;;;;;4.57;3.13;;;;;;;18.98;65.61;100060.63;5113604;28;20449;-60
2022/10/17 07:24:58;;;;;;;5.40;3.33;;;;;;;19.00;65.88;100062.19;5113041;28;20063;-64
2022/10/17 07:27:25;;;;;;;3.47;3.15;;;;;;;19.02;65.41;100062.91;5113034;28;20447;-61
2022/10/17 07:29:52;;;;;;;6.93;3.25;;;;;;;19.06;65.40;100066.19;5111943;28;20377;-62
2022/10/17 07:32:18;;;;;;;5.20;3.00;;;;;;;19.07;65.28;100067.88;5112162;28;20697;-61
2022/10/17 07:34:45;;;;;;;7.35;3.20;;;;;;;19.08;65.50;100066.91;5112767;28;20069;-62
2022/10/17 07:37:12;;;;;;;4.63;3.17;;;;;;;19.11;65.82;100068.47;5113035;28;20104;-61
2022/10/17 07:39:38;;;;;;;3.45;3.13;;;;;;;19.12;65.51;100071.00;5112855;28;20071;-61
2022/10/17 07:42:06;;;;;;;4.00;3.47;;;;;;;19.15;65.60;100072.53;5112874;28;20114;-62
2022/10/17 07:44:34;;;;;;;4.18;2.97;;;;;;;19.19;65.78;100070.44;5112907;28;20092;-64
2022/10/17 07:47:01;;;;;;;5.18;3.25;;;;;;;19.20;65.61;100075.63;5112912;28;20059;-62
2022/10/17 07:49:28;;;;;;;23.90;8.00;;;;;;;19.23;65.73;100074.53;5111541;28;20112;-62
2022/10/17 07:51:54;;;;;;;6.78;3.70;;;;;;;19.25;65.39;100070.72;5112913;28;20101;-62
2022/10/17 07:54:21;;;;;;;7.25;3.40;;;;;;;19.28;65.64;100080.28;5112817;28;20108;-65
2022/10/17 07:56:49;;;;;;;4.85;3.10;;;;;;;19.31;65.74;100077.34;5112558;28;20047;-61
2022/10/17 07:59:19;;;;;;;5.53;3.08;;;;;;;19.33;65.76;100074.56;5111031;28;20062;-61
2022/10/17 08:01:45;;;;;;;4.43;3.22;;;;;;;19.37;65.59;100082.13;5112658;28;20100;-62
2022/10/17 08:04:12;;;;;;;9.27;3.25;;;;;;;19.40;65.60;100087.22;5112847;28;20047;-62
2022/10/17 08:06:39;;;;;;;4.60;3.40;;;;;;;19.44;65.50;100085.09;5112396;28;20048;-61
2022/10/17 08:09:05;;;;;;;4.72;3.20;;;;;;;19.47;65.46;100084.00;5112174;28;20090;-64
2022/10/17 08:11:32;;;;;;;10.65;3.30;;;;;;;19.50;65.54;100075.69;5112043;28;20097;-62
2022/10/17 08:13:59;;;;;;;5.28;3.60;;;;;;;19.53;65.19;100075.44;5112550;27;20050;-61
2022/10/17 08:16:25;;;;;;;5.53;3.25;;;;;;;19.56;65.30;100083.16;5112212;28;20055;-61
2022/10/17 08:18:52;;;;;;;5.93;3.55;;;;;;;19.59;65.55;100074.03;5112069;28;20083;-63
2022/10/17 08:21:19;;;;;;;6.05;3.70;;;;;;;19.63;65.29;100070.09;5112218;28;20411;-61
2022/10/17 08:23:45;;;;;;;6.45;3.45;;;;;;;19.65;65.28;100074.31;5112075;28;20100;-64
2022/10/17 08:26:16;;;;;;;7.28;3.50;;;;;;;19.69;65.05;100069.53;5111920;28;20100;-63
2022/10/17 08:28:42;;;;;;;13.05;3.67;;;;;;;19.71;64.99;100072.06;5110703;28;20121;-62
2022/10/17 08:31:12;;;;;;;4.03;3.20;;;;;;;19.73;65.08;100078.13;5110763;28;20488;-61
2022/10/17 08:33:40;;;;;;;4.50;3.22;;;;;;;19.75;64.99;100073.47;5110997;28;20055;-61
2022/10/17 08:36:07;;;;;;;7.60;3.60;;;;;;;19.78;64.92;100078.56;5112156;28;20051;-62
2022/10/17 08:38:35;;;;;;;6.05;3.63;;;;;;;19.80;65.17;100068.56;5110504;28;20093;-63
2022/10/17 08:41:44;;;;;;;11.65;4.60;;;;;;;19.78;65.17;100071.38;5111914;28;20047;-63
2022/10/17 08:44:32;;;;;;;5.60;3.53;;;;;;;19.83;64.88;100070.09;5092856;28;20047;-61
2022/10/17 08:47:03;;;;;;;6.85;3.75;;;;;;;19.89;64.75;100067.72;5111071;28;20051;-62
2022/10/17 08:49:45;;;;;;;30.88;7.25;;;;;;;19.89;64.83;100067.72;5110386;28;20047;-61
2022/10/17 08:52:34;;;;;;;9.75;4.03;;;;;;;19.92;65.25;100066.59;5110645;28;20055;-60
2022/10/17 08:55:00;;;;;;;4.25;2.88;;;;;;;20.01;64.67;100067.63;5110644;28;20097;-63
2022/10/17 08:57:27;;;;;;;3.35;2.97;;;;;;;20.04;64.87;100072.69;5111528;28;20130;-62
2022/10/17 08:59:55;;;;;;;5.07;3.67;;;;;;;20.10;64.83;100071.25;5111235;28;20047;-62
2022/10/17 09:02:53;;;;;;;3.45;3.15;;;;;;;20.10;65.13;100077.44;5110632;28;20048;-61
2022/10/17 09:05:29;;;;;;;4.93;3.25;;;;;;;20.20;64.94;100073.91;5111558;28;20425;-62
2022/10/17 09:08:05;;;;;;;6.40;3.63;;;;;;;20.28;64.86;100082.06;5110470;28;20039;-61
2022/10/17 09:10:46;;;;;;;4.88;3.55;;;;;;;20.33;64.84;100093.16;5111647;28;20047;-60
2022/10/17 09:13:24;;;;;;;7.75;3.47;;;;;;;20.41;64.69;100098.66;5111753;28;20108;-61
2022/10/17 09:15:56;;;;;;;5.13;3.60;;;;;;;20.47;64.62;100107.06;5110475;28;20047;-62
2022/10/17 09:18:30;;;;;;;6.70;3.42;;;;;;;20.50;64.09;100107.66;5111276;28;20096;-62
2022/10/17 09:21:18;;;;;;;3.63;3.13;;;;;;;20.51;64.15;100109.31;5111598;28;20087;-64
2022/10/17 09:23:55;;;;;;;7.18;3.35;;;;;;;20.57;64.15;100102.56;5111525;28;20094;-63
2022/10/17 09:26:38;;;;;;;7.35;3.58;;;;;;;20.63;63.99;100104.66;5110135;28;20054;-62
2022/10/17 09:29:16;;;;;;;7.90;3.85;;;;;;;20.65;64.06;100112.53;5111278;28;20074;-62
2022/10/17 09:31:50;;;;;;;5.68;3.28;;;;;;;20.72;64.20;100104.75;5110402;28;20048;-61
2022/10/17 09:34:16;;;;;;;11.63;3.53;;;;;;;20.80;64.56;100115.59;5111459;28;20108;-62
2022/10/17 09:36:43;;;;;;;4.30;3.10;;;;;;;20.88;64.62;100112.22;5111291;28;20079;-61
2022/10/17 09:39:17;;;;;;;4.70;3.72;;;;;;;20.94;64.29;100117.81;5110983;28;20051;-62
2022/10/17 09:41:55;;;;;;;4.47;3.03;;;;;;;21.02;63.88;100114.44;5111266;28;20527;-61
2022/10/17 09:44:30;;;;;;;4.40;3.42;;;;;;;21.09;63.37;100115.50;5109991;28;20484;-62
2022/10/17 09:47:25;;;;;;;4.80;3.30;;;;;;;21.14;63.21;100109.72;5110020;28;20047;-62
2022/10/17 09:49:51;;;;;;;6.40;3.40;;;;;;;21.24;63.04;100116.84;5110849;28;20052;-64
2022/10/17 09:52:25;;;;;;;10.15;3.45;;;;;;;21.25;63.14;100134.59;5111526;28;20097;-62
2022/10/17 09:54:58;;;;;;;6.03;3.20;;;;;;;21.29;62.87;100152.91;5109909;28;20043;-61
2022/10/17 09:57:25;;;;;;;5.05;3.25;;;;;;;21.32;63.03;100147.25;5112202;28;20115;-61
2022/10/17 10:00:00;;;;;;;6.25;3.58;;;;;;;21.29;62.55;100157.41;5114747;28;20048;-61
2022/10/17 10:02:29;;;;;;;6.70;3.65;;;;;;;21.31;62.52;100166.16;5115115;28;20051;-62
2022/10/17 10:05:15;;;;;;;9.60;3.55;;;;;;;21.26;62.19;100168.44;5113605;28;20050;-62
2022/10/17 10:07:44;;;;;;;4.85;3.33;;;;;;;21.24;62.31;100165.91;5114709;28;20040;-61
2022/10/17 10:10:26;;;;;;;7.53;3.42;;;;;;;21.15;62.66;100183.66;5114563;28;20462;-62
2022/10/17 10:13:16;;;;;;;6.93;3.80;;;;;;;21.11;62.98;100182.28;5115268;28;20094;-61
2022/10/17 10:15:46;;;;;;;8.35;3.85;;;;;;;21.15;62.98;100178.31;5113552;28;20089;-61
2022/10/17 10:18:25;;;;;;;4.45;3.58;;;;;;;21.12;63.37;100178.59;5114532;28;20058;-63
2022/10/17 10:21:15;;;;;;;5.53;3.60;;;;;;;21.15;63.63;100181.00;5114318;28;20100;-62
2022/10/17 10:23:44;;;;;;;4.50;3.65;;;;;;;21.26;63.79;100177.28;5114497;28;20047;-62
2022/10/17 10:26:20;;;;;;;6.38;3.72;;;;;;;21.30;64.12;100183.22;5114520;28;20108;-64
2022/10/17 10:28:54;;;;;;;4.47;3.50;;;;;;;21.36;63.79;100185.28;5114068;28;20040;-62
2022/10/17 10:31:39;;;;;;;5.18;3.70;;;;;;;21.40;63.63;100193.84;5114214;28;20051;-62
2022/10/17 10:34:18;;;;;;;3.80;3.33;;;;;;;21.46;63.26;100201.31;5114586;28;20101;-62
2022/10/17 10:36:54;;;;;;;8.73;3.90;;;;;;;21.53;63.65;100201.56;5114203;28;20089;-64
2022/10/17 10:39:42;;;;;;;5.65;3.67;;;;;;;21.53;63.41;100205.06;5113978;28;20048;-61
2022/10/17 10:42:28;;;;;;;4.03;3.45;;;;;;;21.56;63.38;100207.47;5113703;28;20105;-63
2022/10/17 10:45:27;;;;;;;4.82;3.38;;;;;;;21.57;63.41;100209.13;5114081;28;20143;-62
2022/10/17 10:48:20;;;;;;;4.50;3.42;;;;;;;21.65;62.99;100211.09;5113697;28;20054;-61
2022/10/17 10:50:46;;;;;;;7.97;3.90;;;;;;;21.65;62.88;100211.09;5114216;28;20119;-61
2022/10/17 10:53:35;;;;;;;7.68;4.28;;;;;;;21.59;63.26;100209.84;5114127;28;20044;-64
2022/10/17 10:56:20;;;;;;;7.88;3.83;;;;;;;21.59;63.12;100222.38;5112622;28;20044;-62
2022/10/17 10:59:02;;;;;;;7.15;3.72;;;;;;;21.61;62.89;100228.47;5112438;28;20078;-62
2022/10/17 11:01:40;;;;;;;4.55;3.72;;;;;;;21.57;63.27;100249.31;5113937;28;20134;-62
2022/10/17 11:04:44;;;;;;;9.75;3.80;;;;;;;21.54;63.29;100251.47;5113460;28;20093;-62
2022/10/17 11:07:29;;;;;;;10.23;3.60;;;;;;;21.52;63.18;100262.31;5113381;28;20507;-61
2022/10/17 11:09:59;;;;;;;6.35;3.50;;;;;;;21.52;63.13;100273.03;5111401;28;20039;-62
2022/10/17 11:12:59;;;;;;;7.07;4.25;;;;;;;21.43;63.35;100269.41;5113831;28;20127;-63
2022/10/17 11:15:51;;;;;;;7.20;3.97;;;;;;;21.38;63.76;100268.16;5113641;28;20130;-62
2022/10/17 11:18:26;;;;;;;4.63;3.35;;;;;;;21.37;63.43;100256.59;5113291;28;20384;-62
2022/10/17 11:20:59;;;;;;;8.25;4.07;;;;;;;21.35;63.37;100267.44;5113268;28;20043;-62
2022/10/17 11:23:41;;;;;;;11.77;3.20;;;;;;;21.28;63.75;100273.53;5113346;28;20051;-61
2022/10/17 11:26:24;;;;;;;5.18;3.83;;;;;;;21.26;63.53;100276.34;5113332;28;20093;-63
2022/10/17 11:28:53;;;;;;;6.43;3.95;;;;;;;21.25;63.28;100273.81;5111794;28;20127;-61
2022/10/17 11:31:22;;;;;;;6.82;3.95;;;;;;;21.21;63.55;100263.41;5113226;28;20055;-61
2022/10/17 11:34:13;;;;;;;5.90;3.88;;;;;;;21.15;63.93;100274.69;5113056;28;20056;-61
2022/10/17 11:36:43;;;;;;;6.53;4.10;;;;;;;21.18;63.99;100269.06;5113004;28;20082;-63
2022/10/17 11:39:12;;;;;;;7.05;3.72;;;;;;;21.20;63.62;100256.34;5112821;28;20083;-61
2022/10/17 11:41:51;;;;;;;6.90;3.92;;;;;;;21.18;63.71;100242.28;5113238;28;20127;-61
2022/10/17 11:44:35;;;;;;;5.85;3.88;;;;;;;21.20;64.21;100267.06;5112839;28;20403;-61
2022/10/17 11:47:22;;;;;;;6.22;3.65;;;;;;;21.20;63.73;100271.59;5111682;28;20039;-62
2022/10/17 11:50:02;;;;;;;6.20;3.17;;;;;;;21.25;63.88;100273.81;5112624;28;20439;-62
2022/10/17 11:53:11;;;;;;;6.10;3.50;;;;;;;21.25;63.89;100263.09;5111756;28;20403;-62